createdAt,value
2018-05-31T19:06:38.535Z,10.80
2018-05-31T19:09:07.570Z,10.85
2018-05-31T19:11:44.146Z,12.95
2018-05-31T19:14:12.646Z,10.82
2018-05-31T19:16:41.333Z,10.98
2018-05-31T19:19:15.402Z,10.82
2018-05-31T19:21:44.465Z,11.40
2018-05-31T19:24:18.803Z,10.82
2018-05-31T19:26:50.369Z,9.38
2018-05-31T19:29:19.278Z,11.40
2018-05-31T19:31:47.601Z,10.35
2018-05-31T19:34:16.583Z,12.07
2018-05-31T19:36:50.479Z,12.82
2018-05-31T19:39:19.589Z,11.90
2018-05-31T19:41:47.876Z,11.10
2018-05-31T19:44:21.852Z,11.68
2018-05-31T19:46:50.167Z,11.68
2018-05-31T19:49:19.029Z,12.43
2018-05-31T19:51:54.756Z,11.82
2018-05-31T19:54:23.196Z,11.60
2018-05-31T19:56:51.784Z,11.68
2018-05-31T19:59:25.955Z,12.85
2018-05-31T20:01:59.906Z,12.52
2018-05-31T20:04:28.224Z,14.18
2018-05-31T20:06:56.714Z,13.70
2018-05-31T20:09:25.007Z,14.00
2018-05-31T20:11:53.922Z,12.98
2018-05-31T20:14:22.250Z,13.07
2018-05-31T20:16:51.371Z,13.40
2018-05-31T20:19:19.696Z,13.57
2018-05-31T20:21:48.018Z,16.73
2018-05-31T20:24:16.343Z,13.80
2018-05-31T20:26:46.726Z,14.52
2018-05-31T20:29:17.174Z,16.25
2018-05-31T20:31:46.515Z,17.40
2018-05-31T20:34:16.302Z,16.08
2018-05-31T20:36:45.095Z,14.32
2018-05-31T20:39:13.986Z,15.80
2018-05-31T20:41:42.371Z,15.68
2018-05-31T20:44:11.473Z,14.70
2018-05-31T20:46:40.643Z,15.40
2018-05-31T20:49:09.900Z,15.60
2018-05-31T20:51:39.779Z,15.27
2018-05-31T20:54:09.066Z,15.30
2018-05-31T20:56:37.366Z,16.85
2018-05-31T20:59:06.526Z,16.60
2018-05-31T21:01:37.331Z,17.90
2018-05-31T21:04:05.676Z,16.35
2018-05-31T21:06:34.521Z,18.35
2018-05-31T21:09:04.893Z,18.20
2018-05-31T21:11:33.239Z,17.60
2018-05-31T21:14:01.984Z,17.65
2018-05-31T21:16:30.756Z,17.23
2018-05-31T21:19:00.218Z,17.25
2018-05-31T21:21:28.505Z,16.15
2018-05-31T21:23:57.381Z,17.15
2018-05-31T21:26:25.927Z,18.67
2018-05-31T21:28:54.985Z,18.62
2018-05-31T21:31:24.081Z,19.25
2018-05-31T21:33:52.952Z,16.52
2018-05-31T21:36:21.363Z,17.55
2018-05-31T21:38:49.669Z,17.30
2018-05-31T21:41:18.730Z,16.35
2018-05-31T21:43:47.033Z,18.75
2018-05-31T21:46:15.357Z,18.62
2018-05-31T21:48:45.762Z,16.05
2018-05-31T21:51:14.086Z,18.15
2018-05-31T21:53:43.154Z,16.70
2018-05-31T21:56:11.462Z,15.88
2018-05-31T21:58:40.212Z,16.55
2018-05-31T22:01:08.568Z,15.88
2018-05-31T22:03:36.870Z,13.02
2018-05-31T22:06:05.210Z,16.15
2018-05-31T22:08:33.535Z,17.10
2018-05-31T22:11:03.014Z,14.95
2018-05-31T22:13:33.103Z,14.73
2018-05-31T22:16:02.026Z,13.70
2018-05-31T22:18:31.318Z,14.60
2018-05-31T22:21:00.440Z,13.95
2018-05-31T22:23:29.500Z,13.88
2018-05-31T22:25:59.771Z,13.93
2018-05-31T22:28:28.154Z,12.45
2018-05-31T22:30:56.647Z,12.80
2018-05-31T22:33:24.968Z,12.63
2018-05-31T22:35:54.026Z,12.27
2018-05-31T22:38:22.345Z,11.90
2018-05-31T22:40:51.417Z,14.32
2018-05-31T22:43:19.705Z,11.45
2018-05-31T22:45:48.018Z,12.40
2018-05-31T22:48:16.423Z,13.05
2018-05-31T22:50:44.760Z,13.20
2018-05-31T22:53:13.936Z,12.93
2018-05-31T22:55:42.240Z,13.48
2018-05-31T22:58:11.303Z,14.77
2018-05-31T23:00:39.738Z,15.25
2018-05-31T23:03:08.038Z,13.50
2018-05-31T23:05:36.359Z,13.32
2018-05-31T23:08:05.446Z,14.65
2018-05-31T23:10:33.769Z,13.95
2018-05-31T23:13:02.157Z,13.45
2018-05-31T23:15:30.474Z,14.23
2018-05-31T23:17:58.762Z,15.20
2018-05-31T23:20:27.061Z,13.98
2018-05-31T23:22:55.382Z,15.65
2018-05-31T23:25:23.664Z,15.88
2018-05-31T23:27:51.959Z,16.90
2018-05-31T23:30:20.399Z,16.60
2018-05-31T23:32:48.700Z,15.68
2018-05-31T23:35:17.003Z,17.80
2018-05-31T23:37:45.306Z,18.30
2018-05-31T23:40:14.374Z,15.80
2018-05-31T23:42:42.671Z,14.05
2018-05-31T23:45:11.738Z,14.73
2018-05-31T23:47:40.096Z,17.70
2018-05-31T23:50:08.428Z,16.92
2018-05-31T23:52:37.490Z,15.65
2018-05-31T23:55:05.854Z,16.58
2018-05-31T23:57:34.144Z,17.27
